PWSweather.com
Personal Weather Stations
Station Observations
TENMILE2
Watts Bar Lake, Ten Mile, TN 37880

Watts Bar LakeTen Mile, TN 37880

Lat: 35.686, Lon: -84.7068

Elevation: 767

Station Type: Davis Vue

http://www.wattsbarweather.org

Latest ConditionsUpdated 7:04:23 PM EDT Wednesday, Oct 16, 2019
Currently Today's Max Today's Min Today's Average
Temperature 57.2°F14.0°C 66.8°F19.3°C 53.4°F11.9°C 61.5°F16.4°C
Dew Point 42.7°F5.9°C 60.4°F15.8°C 42.4°F5.8°C 53.2°F11.8°C
Winds 1.3 mph N2.1 kmh N 7.1 mph -11.4 kmh - - 1.6 mph 2.6 kmh
Wind Gusts 5.0 mph8.0 kmh 21.3 mph34.3 kmh - -
Humidity 58% 96% 42% 77%
Pressure 30.01 in1016.3 mb 30.01 in1016.3 mb 29.80 in1009.1 mb -
Precipitation - 0.27 in6.9 mm - -
Hour Temp Dew Point Humidity Winds Wind Gusts Pressure Precip Precip Rate Daily Precip Total
07:04 PM 57.2°F14.0°C 42.7°F5.9°C 58% 1.3 mph N2.1 kmh N 5.0 mph8.0 kmh 30.01 in1016.3 mb 0.00 in0.0 mm 0.00 in0.0 mm 0.27 in6.9 mm
06:59 PM 57.6°F14.2°C 43.9°F6.6°C 60% 1.3 mph S2.1 kmh S 5.0 mph8.0 kmh 30.01 in1016.3 mb 0.00 in0.0 mm 0.00 in0.0 mm 0.27 in6.9 mm
06:54 PM 57.9°F14.4°C 43.8°F6.6°C 59% 1.3 mph W2.1 kmh W 6.3 mph10.1 kmh 30.00 in1015.9 mb 0.00 in0.0 mm 0.00 in0.0 mm 0.27 in6.9 mm
06:49 PM 58.3°F14.6°C 43.7°F6.5°C 58% 3.2 mph NE5.1 kmh NE 6.3 mph10.1 kmh 30.00 in1015.9 mb 0.00 in0.0 mm 0.00 in0.0 mm 0.27 in6.9 mm
06:44 PM 58.6°F14.8°C 43.5°F6.4°C 57% 2.0 mph ENE3.2 kmh ENE 5.0 mph8.0 kmh 30.00 in1015.9 mb 0.00 in0.0 mm 0.00 in0.0 mm 0.27 in6.9 mm
06:39 PM 58.9°F14.9°C 43.3°F6.3°C 56% 1.7 mph WNW2.7 kmh WNW 5.0 mph8.0 kmh 30.00 in1015.9 mb 0.00 in0.0 mm 0.00 in0.0 mm 0.27 in6.9 mm
06:34 PM 59.2°F15.1°C 43.1°F6.2°C 55% 1.3 mph NNE2.1 kmh NNE 4.0 mph6.4 kmh 30.00 in1015.9 mb 0.00 in0.0 mm 0.00 in0.0 mm 0.27 in6.9 mm
06:29 PM 59.6°F15.3°C 43.0°F6.1°C 54% Calm Calm 5.0 mph8.0 kmh 30.00 in1015.9 mb 0.00 in0.0 mm 0.00 in0.0 mm 0.27 in6.9 mm
06:24 PM 60.0°F15.6°C 43.4°F6.3°C 54% 2.3 mph S3.7 kmh S 5.0 mph8.0 kmh 29.99 in1015.6 mb 0.00 in0.0 mm 0.00 in0.0 mm 0.27 in6.9 mm
06:19 PM 60.3°F15.7°C 44.1°F6.7°C 55% 2.5 mph NE4.0 kmh NE 5.0 mph8.0 kmh 29.99 in1015.6 mb 0.00 in0.0 mm 0.00 in0.0 mm 0.27 in6.9 mm
06:14 PM 60.7°F15.9°C 44.5°F6.9°C 55% 1.3 mph ENE2.1 kmh ENE 5.0 mph8.0 kmh 29.98 in1015.2 mb 0.00 in0.0 mm 0.00 in0.0 mm 0.27 in6.9 mm
06:09 PM 61.0°F16.1°C 45.8°F7.7°C 57% 3.4 mph NE5.5 kmh NE 5.0 mph8.0 kmh 29.98 in1015.2 mb 0.00 in0.0 mm 0.00 in0.0 mm 0.27 in6.9 mm
06:04 PM 61.3°F16.3°C 43.6°F6.4°C 52% 1.9 mph NE3.1 kmh NE 5.0 mph8.0 kmh 29.98 in1015.2 mb 0.00 in0.0 mm 0.00 in0.0 mm 0.27 in6.9 mm
05:59 PM 61.7°F16.5°C 45.0°F7.2°C 54% Calm Calm 6.3 mph10.1 kmh 29.98 in1015.2 mb 0.00 in0.0 mm 0.00 in0.0 mm 0.27 in6.9 mm
05:54 PM 62.1°F16.7°C 43.3°F6.3°C 50% 2.5 mph NE4.0 kmh NE 6.3 mph10.1 kmh 29.97 in1014.9 mb 0.00 in0.0 mm 0.00 in0.0 mm 0.27 in6.9 mm
05:49 PM 62.6°F17.0°C 43.7°F6.5°C 50% 1.4 mph ENE2.3 kmh ENE 7.0 mph11.3 kmh 29.97 in1014.9 mb 0.00 in0.0 mm 0.00 in0.0 mm 0.27 in6.9 mm
05:44 PM 63.1°F17.3°C 43.6°F6.4°C 49% 1.5 mph SSE2.4 kmh SSE 7.0 mph11.3 kmh 29.97 in1014.9 mb 0.00 in0.0 mm 0.00 in0.0 mm 0.27 in6.9 mm
05:39 PM 63.7°F17.6°C 44.2°F6.8°C 49% 1.3 mph N2.1 kmh N 10.0 mph16.1 kmh 29.95 in1014.2 mb 0.00 in0.0 mm 0.00 in0.0 mm 0.27 in6.9 mm
05:34 PM 64.2°F17.9°C 42.9°F6.1°C 46% 3.5 mph ENE5.6 kmh ENE 10.0 mph16.1 kmh 29.95 in1014.2 mb 0.00 in0.0 mm 0.00 in0.0 mm 0.27 in6.9 mm
05:29 PM 64.8°F18.2°C 45.2°F7.3°C 49% 2.1 mph WSW3.4 kmh WSW 6.3 mph10.1 kmh 29.95 in1014.2 mb 0.00 in0.0 mm 0.00 in0.0 mm 0.27 in6.9 mm
05:24 PM 65.0°F18.3°C 43.7°F6.5°C 46% 1.3 mph SE2.1 kmh SE 5.0 mph8.0 kmh 29.95 in1014.2 mb 0.00 in0.0 mm 0.00 in0.0 mm 0.27 in6.9 mm
05:19 PM 65.2°F18.4°C 42.7°F5.9°C 44% 1.9 mph E3.1 kmh E 5.0 mph8.0 kmh 29.95 in1014.2 mb 0.00 in0.0 mm 0.00 in0.0 mm 0.27 in6.9 mm
05:14 PM 65.2°F18.4°C 43.3°F6.3°C 45% 1.5 mph ESE2.4 kmh ESE 5.0 mph8.0 kmh 29.95 in1014.2 mb 0.00 in0.0 mm 0.00 in0.0 mm 0.27 in6.9 mm
05:08 PM 65.2°F18.4°C 42.7°F5.9°C 44% 1.3 mph N2.1 kmh N 6.3 mph10.1 kmh 29.95 in1014.2 mb 0.00 in0.0 mm 0.00 in0.0 mm 0.27 in6.9 mm
05:03 PM 65.6°F18.7°C 42.4°F5.8°C 43% 2.8 mph NNW4.5 kmh NNW 6.3 mph10.1 kmh 29.95 in1014.2 mb 0.00 in0.0 mm 0.00 in0.0 mm 0.27 in6.9 mm
04:58 PM 66.2°F19.0°C 43.0°F6.1°C 43% 1.5 mph SW2.4 kmh SW 4.0 mph6.4 kmh 29.95 in1014.2 mb 0.00 in0.0 mm 0.00 in0.0 mm 0.27 in6.9 mm
04:53 PM 66.4°F19.1°C 42.5°F5.8°C 42% 1.5 mph SW2.4 kmh SW 5.0 mph8.0 kmh 29.95 in1014.2 mb 0.00 in0.0 mm 0.00 in0.0 mm 0.27 in6.9 mm
04:48 PM 66.4°F19.1°C 43.8°F6.6°C 44% 1.3 mph NE2.1 kmh NE 5.0 mph8.0 kmh 29.94 in1013.9 mb 0.00 in0.0 mm 0.00 in0.0 mm 0.27 in6.9 mm
04:43 PM 66.5°F19.2°C 42.6°F5.9°C 42% 2.2 mph SSE3.5 kmh SSE 6.3 mph10.1 kmh 29.94 in1013.9 mb 0.00 in0.0 mm 0.00 in0.0 mm 0.27 in6.9 mm
04:38 PM 66.4°F19.1°C 43.8°F6.6°C 44% 1.4 mph SSE2.3 kmh SSE 7.5 mph12.1 kmh 29.94 in1013.9 mb 0.00 in0.0 mm 0.00 in0.0 mm 0.27 in6.9 mm
04:33 PM 66.3°F19.1°C 44.3°F6.8°C 45% 1.6 mph SW2.6 kmh SW 7.5 mph12.1 kmh 29.94 in1013.9 mb 0.00 in0.0 mm 0.00 in0.0 mm 0.27 in6.9 mm
04:28 PM 66.3°F19.1°C 45.4°F7.4°C 47% 1.3 mph SSE2.1 kmh SSE 7.5 mph12.1 kmh 29.94 in1013.9 mb 0.00 in0.0 mm 0.00 in0.0 mm 0.27 in6.9 mm
04:23 PM 66.6°F19.2°C 42.7°F5.9°C 42% 2.2 mph NNW3.5 kmh NNW 7.5 mph12.1 kmh 29.94 in1013.9 mb 0.00 in0.0 mm 0.00 in0.0 mm 0.27 in6.9 mm
04:18 PM 66.5°F19.2°C 44.5°F6.9°C 45% 1.7 mph S2.7 kmh S 7.5 mph12.1 kmh 29.94 in1013.9 mb 0.00 in0.0 mm 0.00 in0.0 mm 0.27 in6.9 mm
04:13 PM 66.7°F19.3°C 43.4°F6.3°C 43% 1.3 mph E2.1 kmh E 4.0 mph6.4 kmh 29.94 in1013.9 mb 0.00 in0.0 mm 0.00 in0.0 mm 0.27 in6.9 mm
04:08 PM 66.6°F19.2°C 43.3°F6.3°C 43% 1.8 mph WNW2.9 kmh WNW 5.0 mph8.0 kmh 29.94 in1013.9 mb 0.00 in0.0 mm 0.00 in0.0 mm 0.27 in6.9 mm
04:03 PM 66.8°F19.3°C 43.5°F6.4°C 43% 2.3 mph NE3.7 kmh NE 5.0 mph8.0 kmh 29.94 in1013.9 mb 0.00 in0.0 mm 0.00 in0.0 mm 0.27 in6.9 mm
03:58 PM 66.7°F19.3°C 43.4°F6.3°C 43% 2.2 mph SSE3.5 kmh SSE 5.0 mph8.0 kmh 29.94 in1013.9 mb 0.00 in0.0 mm 0.00 in0.0 mm 0.27 in6.9 mm
03:53 PM 66.4°F19.1°C 43.1°F6.2°C 43% 1.3 mph SSW2.1 kmh SSW 4.0 mph6.4 kmh 29.93 in1013.5 mb 0.00 in0.0 mm 0.00 in0.0 mm 0.27 in6.9 mm
03:48 PM 66.0°F18.9°C 44.6°F7.0°C 46% 1.3 mph SSE2.1 kmh SSE 6.3 mph10.1 kmh 29.94 in1013.9 mb 0.00 in0.0 mm 0.00 in0.0 mm 0.27 in6.9 mm
03:43 PM 65.5°F18.6°C 43.5°F6.4°C 45% 2.3 mph SSW3.7 kmh SSW 6.3 mph10.1 kmh 29.93 in1013.5 mb 0.00 in0.0 mm 0.00 in0.0 mm 0.27 in6.9 mm
03:38 PM 65.7°F18.7°C 43.1°F6.2°C 44% 3.0 mph NNE4.8 kmh NNE 6.0 mph9.7 kmh 29.93 in1013.5 mb 0.00 in0.0 mm 0.00 in0.0 mm 0.27 in6.9 mm
03:33 PM 65.6°F18.7°C 44.8°F7.1°C 47% 1.7 mph ENE2.7 kmh ENE 7.0 mph11.3 kmh 29.93 in1013.5 mb 0.00 in0.0 mm 0.00 in0.0 mm 0.27 in6.9 mm
03:28 PM 65.4°F18.6°C 45.8°F7.7°C 49% 1.3 mph NE2.1 kmh NE 10.0 mph16.1 kmh 29.93 in1013.5 mb 0.00 in0.0 mm 0.00 in0.0 mm 0.27 in6.9 mm
03:23 PM 64.7°F18.2°C 45.7°F7.6°C 50% 2.5 mph NNE4.0 kmh NNE 10.0 mph16.1 kmh 29.93 in1013.5 mb 0.00 in0.0 mm 0.00 in0.0 mm 0.27 in6.9 mm
03:18 PM 64.6°F18.1°C 45.0°F7.2°C 49% 1.4 mph W2.3 kmh W 7.5 mph12.1 kmh 29.93 in1013.5 mb 0.00 in0.0 mm 0.00 in0.0 mm 0.27 in6.9 mm
03:13 PM 64.5°F18.1°C 44.9°F7.2°C 49% 2.3 mph N3.7 kmh N 12.0 mph19.3 kmh 29.93 in1013.5 mb 0.00 in0.0 mm 0.00 in0.0 mm 0.27 in6.9 mm
03:08 PM 64.2°F17.9°C 44.1°F6.7°C 48% 1.5 mph E2.4 kmh E 16.3 mph26.2 kmh 29.94 in1013.9 mb 0.00 in0.0 mm 0.00 in0.0 mm 0.27 in6.9 mm
03:03 PM 64.0°F17.8°C 43.9°F6.6°C 48% 2.0 mph ENE3.2 kmh ENE 16.3 mph26.2 kmh 29.94 in1013.9 mb 0.00 in0.0 mm 0.00 in0.0 mm 0.27 in6.9 mm
02:58 PM 64.5°F18.1°C 43.8°F6.6°C 47% 1.9 mph N3.1 kmh N 13.8 mph22.2 kmh 29.94 in1013.9 mb 0.00 in0.0 mm 0.00 in0.0 mm 0.27 in6.9 mm
02:53 PM 65.1°F18.4°C 43.2°F6.2°C 45% 3.4 mph NNE5.5 kmh NNE 8.8 mph14.2 kmh 29.94 in1013.9 mb 0.00 in0.0 mm 0.00 in0.0 mm 0.27 in6.9 mm
02:48 PM 65.2°F18.4°C 45.0°F7.2°C 48% 1.3 mph SSE2.1 kmh SSE 6.3 mph10.1 kmh 29.94 in1013.9 mb 0.00 in0.0 mm 0.00 in0.0 mm 0.27 in6.9 mm
02:43 PM 65.0°F18.3°C 43.7°F6.5°C 46% 2.5 mph NNE4.0 kmh NNE 6.3 mph10.1 kmh 29.94 in1013.9 mb 0.00 in0.0 mm 0.00 in0.0 mm 0.27 in6.9 mm
02:38 PM 65.4°F18.6°C 45.2°F7.3°C 48% 1.3 mph SW2.1 kmh SW 6.0 mph9.7 kmh 29.95 in1014.2 mb 0.00 in0.0 mm 0.00 in0.0 mm 0.27 in6.9 mm
02:33 PM 64.9°F18.3°C 45.3°F7.4°C 49% 2.5 mph SSE4.0 kmh SSE 7.5 mph12.1 kmh 29.94 in1013.9 mb 0.00 in0.0 mm 0.00 in0.0 mm 0.27 in6.9 mm
02:28 PM 64.3°F17.9°C 46.4°F8.0°C 52% 1.4 mph SW2.3 kmh SW 7.5 mph12.1 kmh 29.94 in1013.9 mb 0.00 in0.0 mm 0.00 in0.0 mm 0.27 in6.9 mm
02:23 PM 64.1°F17.8°C 47.7°F8.7°C 55% 1.4 mph NW2.3 kmh NW 6.3 mph10.1 kmh 29.95 in1014.2 mb 0.00 in0.0 mm 0.00 in0.0 mm 0.27 in6.9 mm
02:18 PM 63.5°F17.5°C 46.1°F7.8°C 53% 2.3 mph NW3.7 kmh NW 7.5 mph12.1 kmh 29.95 in1014.2 mb 0.00 in0.0 mm 0.00 in0.0 mm 0.27 in6.9 mm
02:13 PM 63.2°F17.3°C 45.3°F7.4°C 52% 3.0 mph NE4.8 kmh NE 8.8 mph14.2 kmh 29.95 in1014.2 mb 0.00 in0.0 mm 0.00 in0.0 mm 0.27 in6.9 mm
02:08 PM 62.8°F17.1°C 45.5°F7.5°C 53% 2.5 mph WNW4.0 kmh WNW 10.0 mph16.1 kmh 29.95 in1014.2 mb 0.00 in0.0 mm 0.00 in0.0 mm 0.27 in6.9 mm
02:03 PM 62.6°F17.0°C 45.8°F7.7°C 54% 3.8 mph N6.1 kmh N 10.0 mph16.1 kmh 29.95 in1014.2 mb 0.00 in0.0 mm 0.00 in0.0 mm 0.27 in6.9 mm
01:58 PM 62.5°F16.9°C 47.2°F8.4°C 57% 3.9 mph N6.3 kmh N 8.8 mph14.2 kmh 29.95 in1014.2 mb 0.00 in0.0 mm 0.00 in0.0 mm 0.27 in6.9 mm
01:53 PM 62.1°F16.7°C 46.8°F8.2°C 57% 2.6 mph NW4.2 kmh NW 9.0 mph14.5 kmh 29.95 in1014.2 mb 0.00 in0.0 mm 0.00 in0.0 mm 0.27 in6.9 mm
01:48 PM 61.6°F16.4°C 47.3°F8.5°C 59% 3.7 mph N6.0 kmh N 9.0 mph14.5 kmh 29.95 in1014.2 mb 0.00 in0.0 mm 0.00 in0.0 mm 0.27 in6.9 mm
01:43 PM 61.2°F16.2°C 46.9°F8.3°C 59% 2.7 mph N4.3 kmh N 12.5 mph20.1 kmh 29.95 in1014.2 mb 0.00 in0.0 mm 0.00 in0.0 mm 0.27 in6.9 mm
01:38 PM 61.2°F16.2°C 46.4°F8.0°C 58% 7.1 mph NNE11.4 kmh NNE 12.5 mph20.1 kmh 29.97 in1014.9 mb 0.00 in0.0 mm 0.00 in0.0 mm 0.27 in6.9 mm
01:33 PM 61.4°F16.3°C 48.8°F9.3°C 63% 2.0 mph WSW3.2 kmh WSW 12.5 mph20.1 kmh 29.97 in1014.9 mb 0.00 in0.0 mm 0.00 in0.0 mm 0.27 in6.9 mm
01:28 PM 60.9°F16.1°C 48.8°F9.3°C 64% 1.8 mph NE2.9 kmh NE 12.5 mph20.1 kmh 29.97 in1014.9 mb 0.00 in0.0 mm 0.00 in0.0 mm 0.27 in6.9 mm
01:23 PM 61.3°F16.3°C 47.9°F8.8°C 61% 3.0 mph N4.8 kmh N 8.8 mph14.2 kmh 29.97 in1014.9 mb 0.00 in0.0 mm 0.00 in0.0 mm 0.27 in6.9 mm
01:18 PM 61.2°F16.2°C 47.8°F8.8°C 61% 2.0 mph NE3.2 kmh NE 11.3 mph18.2 kmh 29.97 in1014.9 mb 0.00 in0.0 mm 0.00 in0.0 mm 0.27 in6.9 mm
01:13 PM 61.2°F16.2°C 48.7°F9.3°C 63% 4.3 mph N6.9 kmh N 11.3 mph18.2 kmh 29.98 in1015.2 mb 0.00 in0.0 mm 0.00 in0.0 mm 0.27 in6.9 mm
01:08 PM 61.0°F16.1°C 48.0°F8.9°C 62% 2.9 mph SW4.7 kmh SW 10.0 mph16.1 kmh 29.98 in1015.2 mb 0.00 in0.0 mm 0.00 in0.0 mm 0.27 in6.9 mm
01:03 PM 60.3°F15.7°C 48.6°F9.2°C 65% 3.8 mph N6.1 kmh N 13.8 mph22.2 kmh 29.98 in1015.2 mb 0.00 in0.0 mm 0.00 in0.0 mm 0.27 in6.9 mm
12:58 PM 60.5°F15.8°C 48.0°F8.9°C 63% 3.2 mph NE5.1 kmh NE 13.8 mph22.2 kmh 29.98 in1015.2 mb 0.00 in0.0 mm 0.00 in0.0 mm 0.27 in6.9 mm
12:53 PM 60.8°F16.0°C 49.5°F9.7°C 66% 2.2 mph NW3.5 kmh NW 11.0 mph17.7 kmh 29.97 in1014.9 mb 0.00 in0.0 mm 0.00 in0.0 mm 0.27 in6.9 mm
12:48 PM 60.7°F15.9°C 49.8°F9.9°C 67% 2.5 mph S4.0 kmh S 15.0 mph24.1 kmh 29.97 in1014.9 mb 0.00 in0.0 mm 0.00 in0.0 mm 0.27 in6.9 mm
12:43 PM 59.6°F15.3°C 51.1°F10.6°C 73% 4.7 mph ENE7.6 kmh ENE 15.0 mph24.1 kmh 29.97 in1014.9 mb 0.00 in0.0 mm 0.00 in0.0 mm 0.27 in6.9 mm
12:38 PM 59.1°F15.1°C 50.2°F10.1°C 72% 1.3 mph SW2.1 kmh SW 6.3 mph10.1 kmh 29.97 in1014.9 mb 0.00 in0.0 mm 0.00 in0.0 mm 0.27 in6.9 mm
12:33 PM 59.7°F15.4°C 49.3°F9.6°C 68% 1.8 mph NW2.9 kmh NW 7.5 mph12.1 kmh 29.97 in1014.9 mb 0.00 in0.0 mm 0.00 in0.0 mm 0.27 in6.9 mm
12:28 PM 60.7°F15.9°C 49.8°F9.9°C 67% 1.7 mph N2.7 kmh N 7.5 mph12.1 kmh 29.95 in1014.2 mb 0.00 in0.0 mm 0.00 in0.0 mm 0.27 in6.9 mm
12:23 PM 60.7°F15.9°C 49.4°F9.7°C 66% 2.4 mph SSW3.9 kmh SSW 7.5 mph12.1 kmh 29.95 in1014.2 mb 0.00 in0.0 mm 0.00 in0.0 mm 0.27 in6.9 mm
12:18 PM 61.0°F16.1°C 50.1°F10.1°C 67% 2.3 mph SW3.7 kmh SW 7.0 mph11.3 kmh 29.95 in1014.2 mb 0.00 in0.0 mm 0.00 in0.0 mm 0.27 in6.9 mm
12:13 PM 60.7°F15.9°C 51.4°F10.8°C 71% 1.9 mph WSW3.1 kmh WSW 9.0 mph14.5 kmh 29.95 in1014.2 mb 0.00 in0.0 mm 0.00 in0.0 mm 0.27 in6.9 mm
12:07 PM 60.7°F15.9°C 50.6°F10.3°C 69% 2.5 mph NW4.0 kmh NW 9.0 mph14.5 kmh 29.95 in1014.2 mb 0.00 in0.0 mm 0.00 in0.0 mm 0.27 in6.9 mm
12:02 PM 60.5°F15.8°C 49.6°F9.8°C 67% 3.3 mph N5.3 kmh N 12.5 mph20.1 kmh 29.95 in1014.2 mb 0.00 in0.0 mm 0.00 in0.0 mm 0.27 in6.9 mm
11:57 AM 60.6°F15.9°C 50.1°F10.1°C 68% 2.5 mph N4.0 kmh N 12.5 mph20.1 kmh 29.95 in1014.2 mb 0.00 in0.0 mm 0.00 in0.0 mm 0.27 in6.9 mm
11:52 AM 61.1°F16.2°C 52.5°F11.4°C 73% 2.5 mph SW4.0 kmh SW 11.3 mph18.2 kmh 29.95 in1014.2 mb 0.00 in0.0 mm 0.00 in0.0 mm 0.27 in6.9 mm
11:47 AM 60.9°F16.1°C 52.7°F11.5°C 74% 3.5 mph S5.6 kmh S 10.0 mph16.1 kmh 29.95 in1014.2 mb 0.00 in0.0 mm 0.00 in0.0 mm 0.27 in6.9 mm
11:42 AM 60.5°F15.8°C 51.9°F11.1°C 73% 2.8 mph S4.5 kmh S 5.0 mph8.0 kmh 29.95 in1014.2 mb 0.00 in0.0 mm 0.00 in0.0 mm 0.27 in6.9 mm
11:37 AM 60.5°F15.8°C 53.0°F11.7°C 76% 1.8 mph WSW2.9 kmh WSW 7.0 mph11.3 kmh 29.95 in1014.2 mb 0.00 in0.0 mm 0.00 in0.0 mm 0.27 in6.9 mm
11:32 AM 60.1°F15.6°C 53.6°F12.0°C 79% 1.5 mph W2.4 kmh W 8.0 mph12.9 kmh 29.94 in1013.9 mb 0.00 in0.0 mm 0.00 in0.0 mm 0.27 in6.9 mm
11:27 AM 59.4°F15.2°C 53.6°F12.0°C 81% 2.2 mph NE3.5 kmh NE 10.0 mph16.1 kmh 29.94 in1013.9 mb 0.00 in0.0 mm 0.00 in0.0 mm 0.27 in6.9 mm
11:22 AM 58.4°F14.7°C 52.0°F11.1°C 79% 3.5 mph NNW5.6 kmh NNW 12.5 mph20.1 kmh 29.94 in1013.9 mb 0.00 in0.0 mm 0.00 in0.0 mm 0.27 in6.9 mm
11:17 AM 57.1°F13.9°C 51.0°F10.6°C 80% 2.5 mph S4.0 kmh S 12.5 mph20.1 kmh 29.94 in1013.9 mb 0.00 in0.0 mm 0.00 in0.0 mm 0.27 in6.9 mm
11:12 AM 56.4°F13.6°C 51.0°F10.6°C 82% 2.7 mph NE4.3 kmh NE 11.3 mph18.2 kmh 29.94 in1013.9 mb 0.00 in0.0 mm 0.00 in0.0 mm 0.27 in6.9 mm
11:07 AM 56.2°F13.4°C 51.1°F10.6°C 83% 3.2 mph N5.1 kmh N 11.3 mph18.2 kmh 29.94 in1013.9 mb 0.00 in0.0 mm 0.00 in0.0 mm 0.27 in6.9 mm
11:02 AM 55.9°F13.3°C 51.8°F11.0°C 86% 1.3 mph N2.1 kmh N 7.0 mph11.3 kmh 29.94 in1013.9 mb 0.00 in0.0 mm 0.00 in0.0 mm 0.27 in6.9 mm
10:57 AM 55.8°F13.2°C 51.4°F10.8°C 85% 2.3 mph SSW3.7 kmh SSW 8.8 mph14.2 kmh 29.94 in1013.9 mb 0.00 in0.0 mm 0.00 in0.0 mm 0.27 in6.9 mm
10:52 AM 55.8°F13.2°C 51.7°F10.9°C 86% 3.5 mph E5.6 kmh E 8.8 mph14.2 kmh 29.94 in1013.9 mb 0.00 in0.0 mm 0.00 in0.0 mm 0.27 in6.9 mm
10:47 AM 55.7°F13.2°C 52.8°F11.6°C 90% 2.3 mph SW3.7 kmh SW 5.0 mph8.0 kmh 29.94 in1013.9 mb 0.00 in0.0 mm 0.00 in0.0 mm 0.27 in6.9 mm
10:42 AM 54.9°F12.7°C 52.3°F11.3°C 91% 2.5 mph N4.0 kmh N 5.0 mph8.0 kmh 29.93 in1013.5 mb 0.00 in0.0 mm 0.00 in0.0 mm 0.27 in6.9 mm
10:37 AM 53.8°F12.1°C 50.9°F10.5°C 90% Calm Calm 2.5 mph4.0 kmh 29.93 in1013.5 mb 0.00 in0.0 mm 0.00 in0.0 mm 0.27 in6.9 mm
10:32 AM 53.6°F12.0°C 50.4°F10.2°C 89% 1.4 mph WNW2.3 kmh WNW 3.0 mph4.8 kmh 29.92 in1013.2 mb 0.00 in0.0 mm 0.00 in0.0 mm 0.27 in6.9 mm
10:27 AM 53.4°F11.9°C 50.2°F10.1°C 89% 1.3 mph E2.1 kmh E 7.0 mph11.3 kmh 29.92 in1013.2 mb 0.00 in0.0 mm 0.00 in0.0 mm 0.27 in6.9 mm
10:22 AM 53.4°F11.9°C 50.2°F10.1°C 89% 1.5 mph NW2.4 kmh NW 7.0 mph11.3 kmh 29.92 in1013.2 mb 0.00 in0.0 mm 0.00 in0.0 mm 0.27 in6.9 mm
10:17 AM 53.4°F11.9°C 50.2°F10.1°C 89% 1.3 mph NE2.1 kmh NE 10.0 mph16.1 kmh 29.92 in1013.2 mb 0.00 in0.0 mm 0.00 in0.0 mm 0.27 in6.9 mm
10:12 AM 53.5°F11.9°C 50.3°F10.2°C 89% 2.8 mph SE4.5 kmh SE 10.0 mph16.1 kmh 29.92 in1013.2 mb 0.00 in0.0 mm 0.00 in0.0 mm 0.27 in6.9 mm
10:07 AM 53.5°F11.9°C 49.7°F9.8°C 87% 2.8 mph NE4.5 kmh NE 16.0 mph25.7 kmh 29.91 in1012.9 mb 0.00 in0.0 mm 0.00 in0.0 mm 0.27 in6.9 mm
10:02 AM 53.7°F12.1°C 50.5°F10.3°C 89% 1.8 mph NNE2.9 kmh NNE 16.0 mph25.7 kmh 29.92 in1013.2 mb 0.00 in0.0 mm 0.00 in0.0 mm 0.27 in6.9 mm
09:57 AM 54.0°F12.2°C 50.8°F10.4°C 89% 3.9 mph NE6.3 kmh NE 21.3 mph34.3 kmh 29.92 in1013.2 mb 0.00 in0.0 mm 0.00 in0.0 mm 0.27 in6.9 mm
09:52 AM 54.3°F12.4°C 50.5°F10.3°C 87% 4.7 mph N7.6 kmh N 21.3 mph34.3 kmh 29.92 in1013.2 mb 0.00 in0.0 mm 0.00 in0.0 mm 0.27 in6.9 mm
09:47 AM 54.9°F12.7°C 51.7°F10.9°C 89% 3.6 mph N5.8 kmh N 12.5 mph20.1 kmh 29.91 in1012.9 mb 0.00 in0.0 mm 0.00 in0.0 mm 0.27 in6.9 mm
09:42 AM 55.6°F13.1°C 52.7°F11.5°C 90% 3.2 mph N5.1 kmh N 11.3 mph18.2 kmh 29.90 in1012.5 mb 0.00 in0.0 mm 0.00 in0.0 mm 0.27 in6.9 mm
09:37 AM 56.3°F13.5°C 53.4°F11.9°C 90% 4.2 mph NE6.8 kmh NE 13.8 mph22.2 kmh 29.89 in1012.2 mb 0.00 in0.0 mm 0.00 in0.0 mm 0.27 in6.9 mm
09:32 AM 57.0°F13.9°C 53.8°F12.1°C 89% 4.9 mph N7.9 kmh N 13.8 mph22.2 kmh 29.89 in1012.2 mb 0.00 in0.0 mm 0.00 in0.0 mm 0.27 in6.9 mm
09:27 AM 58.3°F14.6°C 55.0°F12.8°C 89% 5.1 mph N8.2 kmh N 13.8 mph22.2 kmh 29.89 in1012.2 mb 0.00 in0.0 mm 0.00 in0.0 mm 0.27 in6.9 mm
09:22 AM 60.0°F15.6°C 57.9°F14.4°C 93% 3.5 mph N5.6 kmh N 10.0 mph16.1 kmh 29.88 in1011.9 mb 0.00 in0.0 mm 0.00 in0.0 mm 0.27 in6.9 mm
09:17 AM 61.3°F16.3°C 59.8°F15.4°C 95% 1.8 mph SE2.9 kmh SE 8.8 mph14.2 kmh 29.87 in1011.5 mb 0.01 in0.3 mm 0.00 in0.0 mm 0.27 in6.9 mm
09:12 AM 61.4°F16.3°C 59.9°F15.5°C 95% 1.4 mph WSW2.3 kmh WSW 2.5 mph4.0 kmh 29.85 in1010.8 mb 0.01 in0.3 mm 0.00 in0.0 mm 0.27 in6.9 mm
09:07 AM 61.6°F16.4°C 60.4°F15.8°C 96% 1.3 mph E2.1 kmh E 1.3 mph2.1 kmh 29.85 in1010.8 mb 0.01 in0.3 mm 0.00 in0.0 mm 0.27 in6.9 mm
09:02 AM 61.6°F16.4°C 60.4°F15.8°C 96% 1.3 mph ESE2.1 kmh ESE 1.3 mph2.1 kmh 29.84 in1010.5 mb 0.01 in0.3 mm 0.00 in0.0 mm 0.27 in6.9 mm
08:57 AM 61.6°F16.4°C 60.4°F15.8°C 96% Calm Calm 1.3 mph2.1 kmh 29.84 in1010.5 mb 0.01 in0.3 mm 0.00 in0.0 mm 0.27 in6.9 mm
08:52 AM 61.5°F16.4°C 60.0°F15.6°C 95% Calm Calm 1.3 mph2.1 kmh 29.84 in1010.5 mb 0.01 in0.3 mm 0.00 in0.0 mm 0.27 in6.9 mm
08:47 AM 61.6°F16.4°C 60.4°F15.8°C 96% 1.3 mph NE2.1 kmh NE 1.3 mph2.1 kmh 29.83 in1010.2 mb 0.01 in0.3 mm 0.00 in0.0 mm 0.27 in6.9 mm
08:42 AM 61.6°F16.4°C 60.4°F15.8°C 96% Calm Calm 1.0 mph1.6 kmh 29.83 in1010.2 mb 0.01 in0.3 mm 0.00 in0.0 mm 0.27 in6.9 mm
08:37 AM 61.5°F16.4°C 60.0°F15.6°C 95% Calm Calm 1.3 mph2.1 kmh 29.83 in1010.2 mb 0.01 in0.3 mm 0.00 in0.0 mm 0.27 in6.9 mm
08:32 AM 61.5°F16.4°C 60.0°F15.6°C 95% 1.3 mph NE2.1 kmh NE 1.3 mph2.1 kmh 29.83 in1010.2 mb 0.01 in0.3 mm 0.00 in0.0 mm 0.27 in6.9 mm
08:27 AM 61.4°F16.3°C 59.9°F15.5°C 95% Calm Calm 1.3 mph2.1 kmh 29.82 in1009.8 mb 0.01 in0.3 mm 0.00 in0.0 mm 0.27 in6.9 mm
08:22 AM 61.4°F16.3°C 59.9°F15.5°C 95% 1.3 mph E2.1 kmh E 1.3 mph2.1 kmh 29.82 in1009.8 mb 0.01 in0.3 mm 0.12 in3.0 mm 0.27 in6.9 mm
08:17 AM 61.4°F16.3°C 59.9°F15.5°C 95% Calm Calm 1.3 mph2.1 kmh 29.82 in1009.8 mb 0.00 in0.0 mm 0.00 in0.0 mm 0.26 in6.6 mm
08:12 AM 61.3°F16.3°C 59.8°F15.4°C 95% Calm Calm 1.3 mph2.1 kmh 29.82 in1009.8 mb 0.00 in0.0 mm 0.00 in0.0 mm 0.26 in6.6 mm
08:07 AM 61.3°F16.3°C 59.8°F15.4°C 95% Calm Calm 1.3 mph2.1 kmh 29.82 in1009.8 mb 0.01 in0.3 mm 0.00 in0.0 mm 0.26 in6.6 mm
08:02 AM 61.3°F16.3°C 59.8°F15.4°C 95% Calm Calm 2.0 mph3.2 kmh 29.81 in1009.5 mb 0.01 in0.3 mm 0.00 in0.0 mm 0.26 in6.6 mm
07:57 AM 61.4°F16.3°C 59.9°F15.5°C 95% Calm Calm 3.0 mph4.8 kmh 29.80 in1009.1 mb 0.01 in0.3 mm 0.00 in0.0 mm 0.26 in6.6 mm
07:52 AM 61.5°F16.4°C 60.0°F15.6°C 95% Calm Calm 3.0 mph4.8 kmh 29.80 in1009.1 mb 0.01 in0.3 mm 0.00 in0.0 mm 0.26 in6.6 mm
07:47 AM 61.4°F16.3°C 59.9°F15.5°C 95% 1.9 mph SW3.1 kmh SW 5.0 mph8.0 kmh 29.81 in1009.5 mb 0.01 in0.3 mm 0.00 in0.0 mm 0.26 in6.6 mm
07:42 AM 61.4°F16.3°C 59.9°F15.5°C 95% 1.4 mph E2.3 kmh E 5.0 mph8.0 kmh 29.80 in1009.1 mb 0.01 in0.3 mm 0.00 in0.0 mm 0.26 in6.6 mm
07:37 AM 61.3°F16.3°C 59.8°F15.4°C 95% 2.2 mph NE3.5 kmh NE 5.0 mph8.0 kmh 29.82 in1009.8 mb 0.01 in0.3 mm 0.00 in0.0 mm 0.26 in6.6 mm
07:32 AM 61.2°F16.2°C 59.7°F15.4°C 95% 1.3 mph S2.1 kmh S 6.3 mph10.1 kmh 29.81 in1009.5 mb 0.01 in0.3 mm 0.00 in0.0 mm 0.26 in6.6 mm
07:27 AM 61.2°F16.2°C 59.7°F15.4°C 95% 3.3 mph S5.3 kmh S 6.3 mph10.1 kmh 29.82 in1009.8 mb 0.02 in0.5 mm 0.00 in0.0 mm 0.26 in6.6 mm
07:22 AM 61.2°F16.2°C 59.7°F15.4°C 95% 1.5 mph S2.4 kmh S 6.0 mph9.7 kmh 29.82 in1009.8 mb 0.02 in0.5 mm 0.00 in0.0 mm 0.26 in6.6 mm
07:17 AM 61.1°F16.2°C 59.6°F15.3°C 95% 1.5 mph S2.4 kmh S 7.5 mph12.1 kmh 29.82 in1009.8 mb 0.02 in0.5 mm 0.00 in0.0 mm 0.26 in6.6 mm
07:12 AM 61.1°F16.2°C 59.6°F15.3°C 95% 1.3 mph SE2.1 kmh SE 7.5 mph12.1 kmh 29.82 in1009.8 mb 0.02 in0.5 mm 0.00 in0.0 mm 0.26 in6.6 mm
07:06 AM 61.1°F16.2°C 59.6°F15.3°C 95% 1.3 mph S2.1 kmh S 8.8 mph14.2 kmh 29.82 in1009.8 mb 0.02 in0.5 mm 0.00 in0.0 mm 0.25 in6.4 mm
07:02 AM 61.1°F16.2°C 59.6°F15.3°C 95% 2.9 mph SE4.7 kmh SE 8.8 mph14.2 kmh 29.82 in1009.8 mb 0.03 in0.8 mm 0.00 in0.0 mm 0.25 in6.4 mm
06:56 AM 61.0°F16.1°C 59.5°F15.3°C 95% 2.1 mph SSE3.4 kmh SSE 3.8 mph6.1 kmh 29.82 in1009.8 mb 0.03 in0.8 mm 0.00 in0.0 mm 0.25 in6.4 mm
06:51 AM 61.0°F16.1°C 59.5°F15.3°C 95% 2.2 mph SSE3.5 kmh SSE 3.8 mph6.1 kmh 29.82 in1009.8 mb 0.04 in1.0 mm 0.00 in0.0 mm 0.25 in6.4 mm
06:46 AM 61.0°F16.1°C 59.5°F15.3°C 95% 1.8 mph SSE2.9 kmh SSE 3.8 mph6.1 kmh 29.82 in1009.8 mb 0.04 in1.0 mm 0.00 in0.0 mm 0.25 in6.4 mm
06:41 AM 60.9°F16.1°C 59.4°F15.2°C 95% 1.3 mph S2.1 kmh S 2.0 mph3.2 kmh 29.82 in1009.8 mb 0.05 in1.3 mm 0.00 in0.0 mm 0.25 in6.4 mm
06:36 AM 60.9°F16.1°C 59.4°F15.2°C 95% Calm Calm 3.0 mph4.8 kmh 29.82 in1009.8 mb 0.07 in1.8 mm 0.00 in0.0 mm 0.25 in6.4 mm
06:31 AM 60.8°F16.0°C 59.3°F15.2°C 95% Calm Calm 3.0 mph4.8 kmh 29.82 in1009.8 mb 0.07 in1.8 mm 0.00 in0.0 mm 0.25 in6.4 mm
06:26 AM 60.8°F16.0°C 59.3°F15.2°C 95% Calm Calm 3.8 mph6.1 kmh 29.82 in1009.8 mb 0.09 in2.3 mm 0.00 in0.0 mm 0.24 in6.1 mm
06:21 AM 60.8°F16.0°C 59.3°F15.2°C 95% 1.5 mph S2.4 kmh S 3.8 mph6.1 kmh 29.81 in1009.5 mb 0.12 in3.0 mm 0.00 in0.0 mm 0.24 in6.1 mm
06:16 AM 60.8°F16.0°C 59.3°F15.2°C 95% Calm Calm 4.0 mph6.4 kmh 29.81 in1009.5 mb 0.13 in3.3 mm 0.00 in0.0 mm 0.24 in6.1 mm
06:11 AM 60.9°F16.1°C 59.4°F15.2°C 95% 1.3 mph SSE2.1 kmh SSE 5.0 mph8.0 kmh 29.82 in1009.8 mb 0.13 in3.3 mm 0.00 in0.0 mm 0.24 in6.1 mm
06:06 AM 60.9°F16.1°C 59.4°F15.2°C 95% Calm Calm 6.0 mph9.7 kmh 29.82 in1009.8 mb 0.13 in3.3 mm 0.12 in3.0 mm 0.23 in5.8 mm
06:01 AM 60.9°F16.1°C 59.4°F15.2°C 95% 1.7 mph SE2.7 kmh SE 6.3 mph10.1 kmh 29.82 in1009.8 mb 0.12 in3.0 mm 0.00 in0.0 mm 0.22 in5.6 mm
05:56 AM 60.8°F16.0°C 59.3°F15.2°C 95% 1.5 mph SSW2.4 kmh SSW 7.5 mph12.1 kmh 29.82 in1009.8 mb 0.12 in3.0 mm 0.12 in3.0 mm 0.22 in5.6 mm
05:51 AM 60.9°F16.1°C 59.4°F15.2°C 95% 2.2 mph SSE3.5 kmh SSE 7.5 mph12.1 kmh 29.82 in1009.8 mb 0.11 in2.8 mm 0.00 in0.0 mm 0.21 in5.3 mm
05:46 AM 60.8°F16.0°C 59.3°F15.2°C 95% 1.5 mph ESE2.4 kmh ESE 2.5 mph4.0 kmh 29.83 in1010.2 mb 0.11 in2.8 mm 0.24 in6.1 mm 0.21 in5.3 mm
05:41 AM 60.8°F16.0°C 59.3°F15.2°C 95% 1.3 mph SSW2.1 kmh SSW 1.3 mph2.1 kmh 29.83 in1010.2 mb 0.09 in2.3 mm 0.24 in6.1 mm 0.20 in5.1 mm
05:36 AM 60.8°F16.0°C 59.0°F15.0°C 94% 1.3 mph SSW2.1 kmh SSW 1.3 mph2.1 kmh 29.83 in1010.2 mb 0.07 in1.8 mm 0.00 in0.0 mm 0.18 in4.6 mm
05:31 AM 60.8°F16.0°C 59.0°F15.0°C 94% Calm Calm 1.0 mph1.6 kmh 29.82 in1009.8 mb 0.07 in1.8 mm 0.36 in9.1 mm 0.18 in4.6 mm
05:26 AM 60.9°F16.1°C 59.1°F15.1°C 94% Calm Calm -- 29.82 in1009.8 mb 0.04 in1.0 mm 0.24 in6.1 mm 0.15 in3.8 mm
05:21 AM 60.9°F16.1°C 59.1°F15.1°C 94% Calm Calm -- 29.82 in1009.8 mb 0.02 in0.5 mm 0.12 in3.0 mm 0.13 in3.3 mm
05:16 AM 60.9°F16.1°C 59.1°F15.1°C 94% Calm Calm 1.0 mph1.6 kmh 29.82 in1009.8 mb 0.01 in0.3 mm 0.00 in0.0 mm 0.12 in3.0 mm
05:11 AM 60.9°F16.1°C 59.1°F15.1°C 94% Calm Calm 1.0 mph1.6 kmh 29.82 in1009.8 mb 0.01 in0.3 mm 0.12 in3.0 mm 0.12 in3.0 mm
05:06 AM 60.9°F16.1°C 59.1°F15.1°C 94% Calm Calm 1.3 mph2.1 kmh 29.82 in1009.8 mb 0.00 in0.0 mm 0.00 in0.0 mm 0.10 in2.5 mm
05:01 AM 60.9°F16.1°C 59.1°F15.1°C 94% 1.3 mph S2.1 kmh S 4.0 mph6.4 kmh 29.83 in1010.2 mb 0.01 in0.3 mm 0.00 in0.0 mm 0.10 in2.5 mm
04:56 AM 60.9°F16.1°C 59.1°F15.1°C 94% Calm Calm 4.0 mph6.4 kmh 29.83 in1010.2 mb 0.02 in0.5 mm 0.00 in0.0 mm 0.10 in2.5 mm
04:51 AM 61.0°F16.1°C 59.2°F15.1°C 94% 1.3 mph ESE2.1 kmh ESE 5.0 mph8.0 kmh 29.83 in1010.2 mb 0.03 in0.8 mm 0.00 in0.0 mm 0.10 in2.5 mm
04:46 AM 61.0°F16.1°C 59.2°F15.1°C 94% Calm Calm 5.0 mph8.0 kmh 29.83 in1010.2 mb 0.03 in0.8 mm 0.00 in0.0 mm 0.10 in2.5 mm
04:41 AM 61.1°F16.2°C 59.3°F15.2°C 94% 1.9 mph S3.1 kmh S 2.5 mph4.0 kmh 29.83 in1010.2 mb 0.03 in0.8 mm 0.00 in0.0 mm 0.10 in2.5 mm
04:36 AM 61.1°F16.2°C 59.3°F15.2°C 94% Calm Calm 1.0 mph1.6 kmh 29.83 in1010.2 mb 0.03 in0.8 mm 0.00 in0.0 mm 0.10 in2.5 mm
04:31 AM 61.1°F16.2°C 59.3°F15.2°C 94% Calm Calm 1.0 mph1.6 kmh 29.84 in1010.5 mb 0.03 in0.8 mm 0.00 in0.0 mm 0.10 in2.5 mm
04:26 AM 61.1°F16.2°C 59.3°F15.2°C 94% Calm Calm 1.0 mph1.6 kmh 29.84 in1010.5 mb 0.03 in0.8 mm 0.00 in0.0 mm 0.10 in2.5 mm
04:21 AM 61.1°F16.2°C 59.3°F15.2°C 94% Calm Calm 1.0 mph1.6 kmh 29.84 in1010.5 mb 0.03 in0.8 mm 0.00 in0.0 mm 0.10 in2.5 mm
04:16 AM 61.2°F16.2°C 59.4°F15.2°C 94% Calm Calm 1.0 mph1.6 kmh 29.85 in1010.8 mb 0.03 in0.8 mm 0.00 in0.0 mm 0.10 in2.5 mm
04:11 AM 61.2°F16.2°C 59.4°F15.2°C 94% Calm Calm 1.0 mph1.6 kmh 29.85 in1010.8 mb 0.03 in0.8 mm 0.00 in0.0 mm 0.10 in2.5 mm
04:06 AM 61.2°F16.2°C 59.4°F15.2°C 94% Calm Calm 1.0 mph1.6 kmh 29.85 in1010.8 mb 0.03 in0.8 mm 0.00 in0.0 mm 0.10 in2.5 mm
04:01 AM 61.2°F16.2°C 59.4°F15.2°C 94% Calm Calm 1.0 mph1.6 kmh 29.85 in1010.8 mb 0.03 in0.8 mm 0.01 in0.3 mm 0.09 in2.3 mm
03:56 AM 61.3°F16.3°C 59.5°F15.3°C 94% Calm Calm 1.0 mph1.6 kmh 29.86 in1011.2 mb 0.02 in0.5 mm 0.12 in3.0 mm 0.08 in2.0 mm
03:51 AM 61.3°F16.3°C 59.5°F15.3°C 94% Calm Calm -- 29.86 in1011.2 mb 0.01 in0.3 mm 0.00 in0.0 mm 0.07 in1.8 mm
03:46 AM 61.3°F16.3°C 59.5°F15.3°C 94% Calm Calm -- 29.87 in1011.5 mb 0.01 in0.3 mm 0.00 in0.0 mm 0.07 in1.8 mm
03:41 AM 61.4°F16.3°C 59.6°F15.3°C 94% Calm Calm -- 29.87 in1011.5 mb 0.01 in0.3 mm 0.00 in0.0 mm 0.07 in1.8 mm
03:36 AM 61.4°F16.3°C 59.6°F15.3°C 94% Calm Calm -- 29.87 in1011.5 mb 0.01 in0.3 mm 0.00 in0.0 mm 0.07 in1.8 mm
03:31 AM 61.4°F16.3°C 59.6°F15.3°C 94% Calm Calm -- 29.87 in1011.5 mb 0.01 in0.3 mm 0.00 in0.0 mm 0.07 in1.8 mm
03:26 AM 61.4°F16.3°C 59.6°F15.3°C 94% Calm Calm 1.0 mph1.6 kmh 29.88 in1011.9 mb 0.01 in0.3 mm 0.00 in0.0 mm 0.07 in1.8 mm
03:21 AM 61.4°F16.3°C 59.3°F15.2°C 93% Calm Calm 1.0 mph1.6 kmh 29.88 in1011.9 mb 0.02 in0.5 mm 0.00 in0.0 mm 0.07 in1.8 mm
03:16 AM 61.4°F16.3°C 59.3°F15.2°C 93% Calm Calm 1.0 mph1.6 kmh 29.88 in1011.9 mb 0.04 in1.0 mm 0.00 in0.0 mm 0.07 in1.8 mm
03:11 AM 61.4°F16.3°C 59.3°F15.2°C 93% Calm Calm 1.0 mph1.6 kmh 29.88 in1011.9 mb 0.06 in1.5 mm 0.00 in0.0 mm 0.07 in1.8 mm
03:06 AM 61.5°F16.4°C 59.4°F15.2°C 93% Calm Calm 1.0 mph1.6 kmh 29.89 in1012.2 mb 0.06 in1.5 mm 0.00 in0.0 mm 0.06 in1.5 mm
03:01 AM 61.5°F16.4°C 59.4°F15.2°C 93% Calm Calm 1.3 mph2.1 kmh 29.89 in1012.2 mb 0.06 in1.5 mm 0.00 in0.0 mm 0.06 in1.5 mm
02:56 AM 61.5°F16.4°C 59.4°F15.2°C 93% Calm Calm 1.3 mph2.1 kmh 29.90 in1012.5 mb 0.06 in1.5 mm 0.00 in0.0 mm 0.06 in1.5 mm
02:51 AM 61.5°F16.4°C 59.4°F15.2°C 93% 1.3 mph SSE2.1 kmh SSE 1.3 mph2.1 kmh 29.90 in1012.5 mb 0.06 in1.5 mm 0.00 in0.0 mm 0.06 in1.5 mm
02:45 AM 61.6°F16.4°C 59.5°F15.3°C 93% Calm Calm 1.3 mph2.1 kmh 29.90 in1012.5 mb 0.06 in1.5 mm 0.00 in0.0 mm 0.06 in1.5 mm
02:40 AM 61.6°F16.4°C 59.2°F15.1°C 92% Calm Calm 1.0 mph1.6 kmh 29.91 in1012.9 mb 0.06 in1.5 mm 0.00 in0.0 mm 0.06 in1.5 mm
02:35 AM 61.6°F16.4°C 59.2°F15.1°C 92% Calm Calm 1.3 mph2.1 kmh 29.90 in1012.5 mb 0.06 in1.5 mm 0.00 in0.0 mm 0.06 in1.5 mm
02:30 AM 61.7°F16.5°C 59.3°F15.2°C 92% Calm Calm 1.3 mph2.1 kmh 29.91 in1012.9 mb 0.06 in1.5 mm 0.00 in0.0 mm 0.06 in1.5 mm
02:25 AM 61.8°F16.6°C 59.1°F15.1°C 91% Calm Calm 2.0 mph3.2 kmh 29.91 in1012.9 mb 0.06 in1.5 mm 0.12 in3.0 mm 0.06 in1.5 mm
02:20 AM 62.0°F16.7°C 59.3°F15.2°C 91% Calm Calm 2.0 mph3.2 kmh 29.92 in1013.2 mb 0.05 in1.3 mm 0.36 in9.1 mm 0.05 in1.3 mm
02:15 AM 62.1°F16.7°C 59.4°F15.2°C 91% Calm Calm 2.5 mph4.0 kmh 29.92 in1013.2 mb 0.02 in0.5 mm 0.12 in3.0 mm 0.02 in0.5 mm
02:10 AM 62.3°F16.8°C 59.3°F15.2°C 90% 1.4 mph S2.3 kmh S 3.0 mph4.8 kmh 29.92 in1013.2 mb 0.01 in0.3 mm 0.12 in3.0 mm 0.01 in0.3 mm
02:05 AM 62.3°F16.8°C 59.3°F15.2°C 90% 1.3 mph SE2.1 kmh SE 3.0 mph4.8 kmh 29.92 in1013.2 mb 0.00 in0.0 mm 0.00 in0.0 mm 0.00 in0.0 mm
02:00 AM 62.3°F16.8°C 59.3°F15.2°C 90% 1.3 mph SE2.1 kmh SE 3.8 mph6.1 kmh 29.92 in1013.2 mb 0.00 in0.0 mm 0.00 in0.0 mm 0.00 in0.0 mm
01:55 AM 62.3°F16.8°C 59.3°F15.2°C 90% 2.3 mph SW3.7 kmh SW 3.8 mph6.1 kmh 29.93 in1013.5 mb 0.00 in0.0 mm 0.00 in0.0 mm 0.00 in0.0 mm
01:50 AM 62.4°F16.9°C 59.4°F15.2°C 90% 1.3 mph E2.1 kmh E 1.3 mph2.1 kmh 29.93 in1013.5 mb 0.00 in0.0 mm 0.00 in0.0 mm 0.00 in0.0 mm
01:45 AM 62.4°F16.9°C 59.4°F15.2°C 90% Calm Calm 1.3 mph2.1 kmh 29.93 in1013.5 mb 0.00 in0.0 mm 0.00 in0.0 mm 0.00 in0.0 mm
01:40 AM 62.4°F16.9°C 59.1°F15.1°C 89% Calm Calm 1.3 mph2.1 kmh 29.93 in1013.5 mb 0.00 in0.0 mm 0.00 in0.0 mm 0.00 in0.0 mm
01:35 AM 62.5°F16.9°C 59.2°F15.1°C 89% Calm Calm 2.5 mph4.0 kmh 29.93 in1013.5 mb 0.00 in0.0 mm 0.00 in0.0 mm 0.00 in0.0 mm
01:30 AM 62.6°F17.0°C 59.3°F15.2°C 89% 1.3 mph SW2.1 kmh SW 2.5 mph4.0 kmh 29.94 in1013.9 mb 0.00 in0.0 mm 0.00 in0.0 mm 0.00 in0.0 mm
01:25 AM 62.8°F17.1°C 59.5°F15.3°C 89% Calm Calm 4.0 mph6.4 kmh 29.93 in1013.5 mb 0.00 in0.0 mm 0.00 in0.0 mm 0.00 in0.0 mm
01:20 AM 62.9°F17.2°C 59.3°F15.2°C 88% 1.3 mph SSW2.1 kmh SSW 4.0 mph6.4 kmh 29.94 in1013.9 mb 0.00 in0.0 mm 0.00 in0.0 mm 0.00 in0.0 mm
01:15 AM 63.1°F17.3°C 59.2°F15.1°C 87% 1.3 mph SSW2.1 kmh SSW 6.0 mph9.7 kmh 29.94 in1013.9 mb 0.00 in0.0 mm 0.00 in0.0 mm 0.00 in0.0 mm
01:10 AM 63.4°F17.4°C 59.5°F15.3°C 87% 2.0 mph S3.2 kmh S 7.0 mph11.3 kmh 29.94 in1013.9 mb 0.00 in0.0 mm 0.00 in0.0 mm 0.00 in0.0 mm
01:05 AM 63.8°F17.7°C 59.2°F15.1°C 85% 2.4 mph S3.9 kmh S 7.5 mph12.1 kmh 29.94 in1013.9 mb 0.00 in0.0 mm 0.00 in0.0 mm 0.00 in0.0 mm
01:00 AM 64.2°F17.9°C 59.3°F15.2°C 84% 4.0 mph S6.4 kmh S 8.8 mph14.2 kmh 29.94 in1013.9 mb 0.00 in0.0 mm 0.00 in0.0 mm 0.00 in0.0 mm
12:55 AM 64.5°F18.1°C 59.3°F15.2°C 83% 1.5 mph SSE2.4 kmh SSE 8.8 mph14.2 kmh 29.95 in1014.2 mb 0.00 in0.0 mm 0.00 in0.0 mm 0.00 in0.0 mm
12:50 AM 64.7°F18.2°C 59.1°F15.1°C 82% 2.3 mph S3.7 kmh S 6.3 mph10.1 kmh 29.95 in1014.2 mb 0.00 in0.0 mm 0.00 in0.0 mm 0.00 in0.0 mm
12:45 AM 64.9°F18.3°C 59.0°F15.0°C 81% 2.2 mph S3.5 kmh S 6.3 mph10.1 kmh 29.95 in1014.2 mb 0.00 in0.0 mm 0.00 in0.0 mm 0.00 in0.0 mm
12:40 AM 64.8°F18.2°C 58.9°F14.9°C 81% 2.5 mph SSW4.0 kmh SSW 6.3 mph10.1 kmh 29.95 in1014.2 mb 0.00 in0.0 mm 0.00 in0.0 mm 0.00 in0.0 mm
12:35 AM 64.6°F18.1°C 58.7°F14.8°C 81% 2.2 mph S3.5 kmh S 6.3 mph10.1 kmh 29.94 in1013.9 mb 0.00 in0.0 mm 0.00 in0.0 mm 0.00 in0.0 mm
12:30 AM 64.4°F18.0°C 58.8°F14.9°C 82% 2.4 mph SSE3.9 kmh SSE 6.3 mph10.1 kmh 29.94 in1013.9 mb 0.00 in0.0 mm 0.00 in0.0 mm 0.00 in0.0 mm
12:25 AM 64.3°F17.9°C 59.1°F15.1°C 83% 2.3 mph S3.7 kmh S 3.8 mph6.1 kmh 29.95 in1014.2 mb 0.00 in0.0 mm 0.00 in0.0 mm 0.00 in0.0 mm
12:20 AM 64.3°F17.9°C 58.7°F14.8°C 82% 1.3 mph SSE2.1 kmh SSE 3.8 mph6.1 kmh 29.95 in1014.2 mb 0.00 in0.0 mm 0.00 in0.0 mm 0.00 in0.0 mm
12:15 AM 64.2°F17.9°C 59.0°F15.0°C 83% Calm Calm 3.8 mph6.1 kmh 29.95 in1014.2 mb 0.00 in0.0 mm 0.00 in0.0 mm 0.00 in0.0 mm
12:10 AM 64.3°F17.9°C 59.1°F15.1°C 83% 1.3 mph SW2.1 kmh SW 1.3 mph2.1 kmh 29.95 in1014.2 mb 0.00 in0.0 mm 0.00 in0.0 mm 0.00 in0.0 mm
12:05 AM 64.5°F18.1°C 59.3°F15.2°C 83% Calm Calm 3.0 mph4.8 kmh 29.95 in1014.2 mb 0.00 in0.0 mm 0.00 in0.0 mm 0.00 in0.0 mm
12:00 AM 64.9°F18.3°C 59.3°F15.2°C 82% Calm Calm 3.0 mph4.8 kmh 29.95 in1014.2 mb 0.00 in0.0 mm 0.00 in0.0 mm 0.00 in0.0 mm